sensor_id;sensor_type;location;lat;lon;timestamp;P1;durP1;ratioP1;P2;durP2;ratioP2
6513;SDS011;3290;47.716;9.070;2022-09-21T00:00:50;3.07;;;2.23;;
6513;SDS011;3290;47.716;9.070;2022-09-21T00:03:16;3.33;;;2.30;;
6513;SDS011;3290;47.716;9.070;2022-09-21T00:05:42;3.47;;;2.10;;
6513;SDS011;3290;47.716;9.070;2022-09-21T00:08:09;2.50;;;2.00;;
6513;SDS011;3290;47.716;9.070;2022-09-21T00:10:37;6.93;;;2.40;;
6513;SDS011;3290;47.716;9.070;2022-09-21T00:13:03;3.97;;;1.93;;
6513;SDS011;3290;47.716;9.070;2022-09-21T00:15:29;5.20;;;2.10;;
6513;SDS011;3290;47.716;9.070;2022-09-21T00:17:56;7.13;;;2.40;;
6513;SDS011;3290;47.716;9.070;2022-09-21T00:20:23;3.03;;;2.10;;
6513;SDS011;3290;47.716;9.070;2022-09-21T00:22:50;9.27;;;2.27;;
6513;SDS011;3290;47.716;9.070;2022-09-21T00:25:16;3.97;;;1.80;;
6513;SDS011;3290;47.716;9.070;2022-09-21T00:27:43;5.33;;;2.80;;
6513;SDS011;3290;47.716;9.070;2022-09-21T00:30:10;8.40;;;2.43;;
6513;SDS011;3290;47.716;9.070;2022-09-21T00:32:36;4.87;;;2.00;;
6513;SDS011;3290;47.716;9.070;2022-09-21T00:35:02;3.50;;;2.10;;
6513;SDS011;3290;47.716;9.070;2022-09-21T00:37:28;8.10;;;2.30;;
6513;SDS011;3290;47.716;9.070;2022-09-21T00:39:54;2.63;;;2.30;;
6513;SDS011;3290;47.716;9.070;2022-09-21T00:42:21;1.80;;;1.70;;
6513;SDS011;3290;47.716;9.070;2022-09-21T00:44:51;8.70;;;2.40;;
6513;SDS011;3290;47.716;9.070;2022-09-21T00:47:30;2.33;;;1.80;;
6513;SDS011;3290;47.716;9.070;2022-09-21T00:50:00;2.37;;;2.10;;
6513;SDS011;3290;47.716;9.070;2022-09-21T00:52:31;3.40;;;2.27;;
6513;SDS011;3290;47.716;9.070;2022-09-21T00:55:35;2.87;;;2.20;;
6513;SDS011;3290;47.716;9.070;2022-09-21T00:57:56;4.60;;;2.60;;
6513;SDS011;3290;47.716;9.070;2022-09-21T01:00:26;4.73;;;2.13;;
6513;SDS011;3290;47.716;9.070;2022-09-21T01:02:52;2.50;;;2.20;;
6513;SDS011;3290;47.716;9.070;2022-09-21T01:05:25;7.90;;;2.53;;
6513;SDS011;3290;47.716;9.070;2022-09-21T01:07:53;9.03;;;2.20;;
6513;SDS011;3290;47.716;9.070;2022-09-21T01:10:21;2.90;;;2.40;;
6513;SDS011;3290;47.716;9.070;2022-09-21T01:18:34;8.13;;;2.57;;
6513;SDS011;3290;47.716;9.070;2022-09-21T01:21:17;3.50;;;2.30;;
6513;SDS011;3290;47.716;9.070;2022-09-21T01:26:53;11.93;;;2.80;;
6513;SDS011;3290;47.716;9.070;2022-09-21T01:29:33;4.33;;;2.53;;
6513;SDS011;3290;47.716;9.070;2022-09-21T01:34:36;4.70;;;2.20;;
6513;SDS011;3290;47.716;9.070;2022-09-21T01:37:51;4.13;;;2.00;;
6513;SDS011;3290;47.716;9.070;2022-09-21T01:40:00;5.60;;;2.87;;
6513;SDS011;3290;47.716;9.070;2022-09-21T01:42:28;10.50;;;2.47;;
6513;SDS011;3290;47.716;9.070;2022-09-21T01:44:57;6.27;;;2.77;;
6513;SDS011;3290;47.716;9.070;2022-09-21T01:47:27;4.13;;;2.57;;
6513;SDS011;3290;47.716;9.070;2022-09-21T01:49:56;6.30;;;2.27;;
6513;SDS011;3290;47.716;9.070;2022-09-21T01:55:22;5.53;;;2.83;;
6513;SDS011;3290;47.716;9.070;2022-09-21T02:00:54;5.10;;;2.33;;
6513;SDS011;3290;47.716;9.070;2022-09-21T02:03:35;9.17;;;3.67;;
6513;SDS011;3290;47.716;9.070;2022-09-21T02:06:03;6.30;;;2.73;;
6513;SDS011;3290;47.716;9.070;2022-09-21T02:08:30;5.03;;;2.90;;
6513;SDS011;3290;47.716;9.070;2022-09-21T02:10:56;5.63;;;2.67;;
6513;SDS011;3290;47.716;9.070;2022-09-21T02:13:25;4.93;;;2.50;;
6513;SDS011;3290;47.716;9.070;2022-09-21T02:21:31;4.27;;;2.70;;
6513;SDS011;3290;47.716;9.070;2022-09-21T02:37:48;8.70;;;3.40;;
6513;SDS011;3290;47.716;9.070;2022-09-21T02:43:10;6.30;;;3.20;;
6513;SDS011;3290;47.716;9.070;2022-09-21T02:45:44;7.03;;;2.87;;
6513;SDS011;3290;47.716;9.070;2022-09-21T02:48:19;6.57;;;2.80;;
6513;SDS011;3290;47.716;9.070;2022-09-21T02:50:51;5.30;;;2.53;;
6513;SDS011;3290;47.716;9.070;2022-09-21T02:53:26;4.20;;;2.60;;
6513;SDS011;3290;47.716;9.070;2022-09-21T02:55:56;5.00;;;2.83;;
6513;SDS011;3290;47.716;9.070;2022-09-21T02:58:27;8.93;;;2.90;;
6513;SDS011;3290;47.716;9.070;2022-09-21T03:00:55;4.70;;;2.83;;
6513;SDS011;3290;47.716;9.070;2022-09-21T03:03:22;6.90;;;3.10;;
6513;SDS011;3290;47.716;9.070;2022-09-21T03:05:49;6.67;;;2.63;;
6513;SDS011;3290;47.716;9.070;2022-09-21T03:08:17;6.30;;;3.30;;
6513;SDS011;3290;47.716;9.070;2022-09-21T03:10:43;3.97;;;2.70;;
6513;SDS011;3290;47.716;9.070;2022-09-21T03:13:09;7.80;;;2.97;;
6513;SDS011;3290;47.716;9.070;2022-09-21T03:15:35;3.40;;;2.90;;
6513;SDS011;3290;47.716;9.070;2022-09-21T03:18:01;9.50;;;3.43;;
6513;SDS011;3290;47.716;9.070;2022-09-21T03:20:29;7.97;;;3.07;;
6513;SDS011;3290;47.716;9.070;2022-09-21T03:22:57;5.97;;;3.00;;
6513;SDS011;3290;47.716;9.070;2022-09-21T03:25:23;4.50;;;2.80;;
6513;SDS011;3290;47.716;9.070;2022-09-21T03:27:48;4.57;;;3.10;;
6513;SDS011;3290;47.716;9.070;2022-09-21T03:30:16;4.30;;;2.63;;
6513;SDS011;3290;47.716;9.070;2022-09-21T03:32:42;12.20;;;3.47;;
6513;SDS011;3290;47.716;9.070;2022-09-21T03:35:07;5.13;;;3.00;;
6513;SDS011;3290;47.716;9.070;2022-09-21T03:37:32;5.13;;;3.00;;
6513;SDS011;3290;47.716;9.070;2022-09-21T03:39:58;5.93;;;3.10;;
6513;SDS011;3290;47.716;9.070;2022-09-21T03:42:24;5.13;;;2.63;;
6513;SDS011;3290;47.716;9.070;2022-09-21T03:44:49;8.67;;;3.07;;
6513;SDS011;3290;47.716;9.070;2022-09-21T03:47:14;8.93;;;3.40;;
6513;SDS011;3290;47.716;9.070;2022-09-21T03:49:40;4.33;;;2.53;;
6513;SDS011;3290;47.716;9.070;2022-09-21T03:52:05;7.70;;;2.83;;
6513;SDS011;3290;47.716;9.070;2022-09-21T03:54:30;4.40;;;3.33;;
6513;SDS011;3290;47.716;9.070;2022-09-21T03:56:56;5.60;;;3.57;;
6513;SDS011;3290;47.716;9.070;2022-09-21T03:59:21;8.93;;;3.17;;
6513;SDS011;3290;47.716;9.070;2022-09-21T04:01:46;5.33;;;3.30;;
6513;SDS011;3290;47.716;9.070;2022-09-21T04:04:12;9.03;;;3.87;;
6513;SDS011;3290;47.716;9.070;2022-09-21T04:06:37;5.00;;;3.10;;
6513;SDS011;3290;47.716;9.070;2022-09-21T04:09:02;7.20;;;2.80;;
6513;SDS011;3290;47.716;9.070;2022-09-21T04:11:28;13.67;;;3.07;;
6513;SDS011;3290;47.716;9.070;2022-09-21T04:13:54;4.53;;;3.43;;
6513;SDS011;3290;47.716;9.070;2022-09-21T04:16:25;4.47;;;3.40;;
6513;SDS011;3290;47.716;9.070;2022-09-21T04:18:51;7.07;;;2.70;;
6513;SDS011;3290;47.716;9.070;2022-09-21T04:21:17;7.60;;;3.60;;
6513;SDS011;3290;47.716;9.070;2022-09-21T04:23:43;8.87;;;4.50;;
6513;SDS011;3290;47.716;9.070;2022-09-21T04:26:24;9.60;;;3.20;;
6513;SDS011;3290;47.716;9.070;2022-09-21T04:28:51;8.87;;;3.23;;
6513;SDS011;3290;47.716;9.070;2022-09-21T04:31:17;7.87;;;3.33;;
6513;SDS011;3290;47.716;9.070;2022-09-21T04:33:43;9.10;;;3.47;;
6513;SDS011;3290;47.716;9.070;2022-09-21T04:36:08;7.87;;;3.60;;
6513;SDS011;3290;47.716;9.070;2022-09-21T04:38:34;7.70;;;3.90;;
6513;SDS011;3290;47.716;9.070;2022-09-21T04:40:59;5.67;;;3.43;;
6513;SDS011;3290;47.716;9.070;2022-09-21T04:43:25;8.17;;;3.80;;
6513;SDS011;3290;47.716;9.070;2022-09-21T04:45:51;6.17;;;3.80;;
6513;SDS011;3290;47.716;9.070;2022-09-21T04:48:16;4.10;;;3.23;;
6513;SDS011;3290;47.716;9.070;2022-09-21T04:50:42;7.30;;;3.63;;
6513;SDS011;3290;47.716;9.070;2022-09-21T04:53:08;17.17;;;3.70;;
6513;SDS011;3290;47.716;9.070;2022-09-21T04:55:34;13.60;;;3.80;;
6513;SDS011;3290;47.716;9.070;2022-09-21T04:57:59;12.53;;;4.17;;
6513;SDS011;3290;47.716;9.070;2022-09-21T05:00:25;11.67;;;3.80;;
6513;SDS011;3290;47.716;9.070;2022-09-21T05:02:51;12.40;;;4.00;;
6513;SDS011;3290;47.716;9.070;2022-09-21T05:05:16;5.20;;;3.23;;
6513;SDS011;3290;47.716;9.070;2022-09-21T05:07:42;8.70;;;3.83;;
6513;SDS011;3290;47.716;9.070;2022-09-21T05:10:07;13.87;;;3.60;;
6513;SDS011;3290;47.716;9.070;2022-09-21T05:12:33;4.83;;;3.60;;
6513;SDS011;3290;47.716;9.070;2022-09-21T05:15:00;6.93;;;3.87;;
6513;SDS011;3290;47.716;9.070;2022-09-21T05:17:26;8.40;;;3.37;;
6513;SDS011;3290;47.716;9.070;2022-09-21T05:19:52;6.13;;;3.53;;
6513;SDS011;3290;47.716;9.070;2022-09-21T05:22:18;6.63;;;3.63;;
6513;SDS011;3290;47.716;9.070;2022-09-21T05:24:44;8.47;;;4.03;;
6513;SDS011;3290;47.716;9.070;2022-09-21T05:27:09;4.77;;;3.60;;
6513;SDS011;3290;47.716;9.070;2022-09-21T05:29:35;4.27;;;3.53;;
6513;SDS011;3290;47.716;9.070;2022-09-21T05:40:07;11.80;;;3.37;;
6513;SDS011;3290;47.716;9.070;2022-09-21T05:42:34;6.57;;;3.60;;
6513;SDS011;3290;47.716;9.070;2022-09-21T05:45:00;6.27;;;4.10;;
6513;SDS011;3290;47.716;9.070;2022-09-21T05:58:24;13.10;;;4.20;;
6513;SDS011;3290;47.716;9.070;2022-09-21T06:03:51;12.13;;;4.73;;
6513;SDS011;3290;47.716;9.070;2022-09-21T06:06:18;6.80;;;4.00;;
6513;SDS011;3290;47.716;9.070;2022-09-21T06:08:44;8.53;;;3.80;;
6513;SDS011;3290;47.716;9.070;2022-09-21T06:11:10;11.13;;;4.23;;
6513;SDS011;3290;47.716;9.070;2022-09-21T06:13:36;13.40;;;3.73;;
6513;SDS011;3290;47.716;9.070;2022-09-21T06:16:01;10.43;;;4.77;;
6513;SDS011;3290;47.716;9.070;2022-09-21T06:18:27;6.87;;;3.77;;
6513;SDS011;3290;47.716;9.070;2022-09-21T06:20:53;8.37;;;3.43;;
6513;SDS011;3290;47.716;9.070;2022-09-21T06:23:18;10.20;;;4.50;;
6513;SDS011;3290;47.716;9.070;2022-09-21T06:25:43;8.40;;;3.80;;
6513;SDS011;3290;47.716;9.070;2022-09-21T06:28:14;7.30;;;3.50;;
6513;SDS011;3290;47.716;9.070;2022-09-21T06:30:40;6.43;;;3.47;;
6513;SDS011;3290;47.716;9.070;2022-09-21T06:33:06;8.37;;;3.17;;
6513;SDS011;3290;47.716;9.070;2022-09-21T06:35:33;7.53;;;2.73;;
6513;SDS011;3290;47.716;9.070;2022-09-21T06:38:00;7.00;;;2.87;;
6513;SDS011;3290;47.716;9.070;2022-09-21T06:40:27;5.50;;;2.97;;
6513;SDS011;3290;47.716;9.070;2022-09-21T06:42:54;5.73;;;3.00;;
6513;SDS011;3290;47.716;9.070;2022-09-21T06:45:24;3.83;;;2.53;;
6513;SDS011;3290;47.716;9.070;2022-09-21T06:47:53;6.53;;;2.53;;
6513;SDS011;3290;47.716;9.070;2022-09-21T06:50:19;4.13;;;2.87;;
6513;SDS011;3290;47.716;9.070;2022-09-21T06:52:45;4.53;;;2.53;;
6513;SDS011;3290;47.716;9.070;2022-09-21T06:55:11;7.90;;;3.27;;
6513;SDS011;3290;47.716;9.070;2022-09-21T06:57:36;3.83;;;2.43;;
6513;SDS011;3290;47.716;9.070;2022-09-21T07:00:03;5.13;;;3.07;;
6513;SDS011;3290;47.716;9.070;2022-09-21T07:02:29;6.67;;;2.70;;
6513;SDS011;3290;47.716;9.070;2022-09-21T07:04:55;7.13;;;2.50;;
6513;SDS011;3290;47.716;9.070;2022-09-21T07:07:20;5.33;;;2.47;;
6513;SDS011;3290;47.716;9.070;2022-09-21T07:09:49;5.50;;;2.40;;
6513;SDS011;3290;47.716;9.070;2022-09-21T07:12:15;5.43;;;2.50;;
6513;SDS011;3290;47.716;9.070;2022-09-21T07:14:41;11.50;;;2.80;;
6513;SDS011;3290;47.716;9.070;2022-09-21T07:17:09;7.37;;;2.30;;
6513;SDS011;3290;47.716;9.070;2022-09-21T07:19:34;5.07;;;1.97;;
6513;SDS011;3290;47.716;9.070;2022-09-21T07:22:00;3.90;;;1.80;;
6513;SDS011;3290;47.716;9.070;2022-09-21T07:24:25;5.90;;;2.17;;
6513;SDS011;3290;47.716;9.070;2022-09-21T07:26:50;5.40;;;3.63;;
6513;SDS011;3290;47.716;9.070;2022-09-21T07:29:16;7.37;;;3.00;;
6513;SDS011;3290;47.716;9.070;2022-09-21T07:31:42;3.03;;;1.97;;
6513;SDS011;3290;47.716;9.070;2022-09-21T07:34:09;6.83;;;2.10;;
6513;SDS011;3290;47.716;9.070;2022-09-21T07:36:35;5.10;;;2.23;;
6513;SDS011;3290;47.716;9.070;2022-09-21T07:39:00;10.10;;;2.10;;
6513;SDS011;3290;47.716;9.070;2022-09-21T07:41:27;5.00;;;1.80;;
6513;SDS011;3290;47.716;9.070;2022-09-21T07:43:52;4.93;;;1.83;;
6513;SDS011;3290;47.716;9.070;2022-09-21T07:46:18;4.07;;;1.80;;
6513;SDS011;3290;47.716;9.070;2022-09-21T07:48:44;7.47;;;1.60;;
6513;SDS011;3290;47.716;9.070;2022-09-21T07:51:11;4.83;;;1.90;;
6513;SDS011;3290;47.716;9.070;2022-09-21T07:53:39;2.47;;;1.33;;
6513;SDS011;3290;47.716;9.070;2022-09-21T07:56:07;2.60;;;1.63;;
6513;SDS011;3290;47.716;9.070;2022-09-21T07:58:35;4.70;;;1.60;;
6513;SDS011;3290;47.716;9.070;2022-09-21T08:01:20;3.37;;;2.07;;
6513;SDS011;3290;47.716;9.070;2022-09-21T08:03:52;3.67;;;1.90;;
6513;SDS011;3290;47.716;9.070;2022-09-21T08:06:19;3.03;;;1.33;;
6513;SDS011;3290;47.716;9.070;2022-09-21T08:08:46;4.20;;;1.80;;
6513;SDS011;3290;47.716;9.070;2022-09-21T08:11:12;4.40;;;1.63;;
6513;SDS011;3290;47.716;9.070;2022-09-21T08:13:39;6.33;;;1.63;;
6513;SDS011;3290;47.716;9.070;2022-09-21T08:16:04;7.87;;;2.07;;
6513;SDS011;3290;47.716;9.070;2022-09-21T08:18:31;5.90;;;1.60;;
6513;SDS011;3290;47.716;9.070;2022-09-21T08:20:57;4.10;;;1.70;;
6513;SDS011;3290;47.716;9.070;2022-09-21T08:23:23;1.93;;;1.37;;
6513;SDS011;3290;47.716;9.070;2022-09-21T08:25:56;6.27;;;3.60;;
6513;SDS011;3290;47.716;9.070;2022-09-21T08:28:31;3.53;;;1.30;;
6513;SDS011;3290;47.716;9.070;2022-09-21T08:31:05;6.17;;;2.87;;
6513;SDS011;3290;47.716;9.070;2022-09-21T08:33:32;2.33;;;1.57;;
6513;SDS011;3290;47.716;9.070;2022-09-21T08:35:59;2.73;;;1.50;;
6513;SDS011;3290;47.716;9.070;2022-09-21T08:38:25;6.40;;;1.97;;
6513;SDS011;3290;47.716;9.070;2022-09-21T08:40:52;7.20;;;2.77;;
6513;SDS011;3290;47.716;9.070;2022-09-21T08:43:26;4.47;;;1.97;;
6513;SDS011;3290;47.716;9.070;2022-09-21T08:45:57;5.73;;;1.87;;
6513;SDS011;3290;47.716;9.070;2022-09-21T08:48:28;4.33;;;1.90;;
6513;SDS011;3290;47.716;9.070;2022-09-21T08:50:58;4.97;;;1.70;;
6513;SDS011;3290;47.716;9.070;2022-09-21T08:53:30;4.80;;;1.50;;
6513;SDS011;3290;47.716;9.070;2022-09-21T08:55:58;5.30;;;1.60;;
6513;SDS011;3290;47.716;9.070;2022-09-21T08:58:26;5.63;;;1.60;;
6513;SDS011;3290;47.716;9.070;2022-09-21T09:03:41;2.83;;;1.30;;
6513;SDS011;3290;47.716;9.070;2022-09-21T09:09:13;2.77;;;1.17;;
6513;SDS011;3290;47.716;9.070;2022-09-21T09:12:04;4.10;;;1.30;;
6513;SDS011;3290;47.716;9.070;2022-09-21T09:14:38;7.93;;;1.17;;
6513;SDS011;3290;47.716;9.070;2022-09-21T09:20:31;4.40;;;1.97;;
6513;SDS011;3290;47.716;9.070;2022-09-21T09:25:52;2.20;;;1.33;;
6513;SDS011;3290;47.716;9.070;2022-09-21T09:30:45;1.60;;;1.20;;
6513;SDS011;3290;47.716;9.070;2022-09-21T09:33:19;4.57;;;1.30;;
6513;SDS011;3290;47.716;9.070;2022-09-21T09:35:54;2.27;;;1.40;;
6513;SDS011;3290;47.716;9.070;2022-09-21T09:38:27;3.77;;;1.40;;
6513;SDS011;3290;47.716;9.070;2022-09-21T09:52:19;2.47;;;1.30;;
6513;SDS011;3290;47.716;9.070;2022-09-21T09:54:45;3.17;;;1.40;;
6513;SDS011;3290;47.716;9.070;2022-09-21T09:57:12;2.87;;;1.50;;
6513;SDS011;3290;47.716;9.070;2022-09-21T09:59:43;3.40;;;1.60;;
6513;SDS011;3290;47.716;9.070;2022-09-21T10:02:22;2.13;;;1.30;;
6513;SDS011;3290;47.716;9.070;2022-09-21T10:04:59;1.60;;;1.27;;
6513;SDS011;3290;47.716;9.070;2022-09-21T10:07:40;2.50;;;2.13;;
6513;SDS011;3290;47.716;9.070;2022-09-21T10:16:28;2.57;;;1.43;;
6513;SDS011;3290;47.716;9.070;2022-09-21T10:18:36;3.67;;;1.20;;
6513;SDS011;3290;47.716;9.070;2022-09-21T10:21:18;1.60;;;1.03;;
6513;SDS011;3290;47.716;9.070;2022-09-21T10:23:47;3.77;;;1.90;;
6513;SDS011;3290;47.716;9.070;2022-09-21T10:26:16;2.90;;;1.53;;
6513;SDS011;3290;47.716;9.070;2022-09-21T10:29:15;5.00;;;1.73;;
6513;SDS011;3290;47.716;9.070;2022-09-21T10:31:57;3.97;;;1.60;;
6513;SDS011;3290;47.716;9.070;2022-09-21T10:37:33;1.80;;;1.20;;
6513;SDS011;3290;47.716;9.070;2022-09-21T10:40:26;6.87;;;1.70;;
6513;SDS011;3290;47.716;9.070;2022-09-21T10:42:55;2.10;;;1.53;;
6513;SDS011;3290;47.716;9.070;2022-09-21T10:50:34;1.63;;;1.47;;
6513;SDS011;3290;47.716;9.070;2022-09-21T10:55:42;2.03;;;1.20;;
6513;SDS011;3290;47.716;9.070;2022-09-21T10:58:11;4.40;;;1.50;;
6513;SDS011;3290;47.716;9.070;2022-09-21T11:00:48;4.83;;;1.37;;
6513;SDS011;3290;47.716;9.070;2022-09-21T11:06:23;1.43;;;1.10;;
6513;SDS011;3290;47.716;9.070;2022-09-21T11:14:25;3.20;;;1.10;;
6513;SDS011;3290;47.716;9.070;2022-09-21T11:16:57;2.03;;;1.10;;
6513;SDS011;3290;47.716;9.070;2022-09-21T11:22:17;2.07;;;1.00;;
6513;SDS011;3290;47.716;9.070;2022-09-21T11:24:59;3.30;;;1.17;;
6513;SDS011;3290;47.716;9.070;2022-09-21T11:27:39;1.40;;;1.00;;
6513;SDS011;3290;47.716;9.070;2022-09-21T11:30:09;1.33;;;1.10;;
6513;SDS011;3290;47.716;9.070;2022-09-21T11:36:01;2.17;;;1.30;;
6513;SDS011;3290;47.716;9.070;2022-09-21T11:44:18;1.53;;;1.03;;
6513;SDS011;3290;47.716;9.070;2022-09-21T11:49:46;2.20;;;1.10;;
6513;SDS011;3290;47.716;9.070;2022-09-21T11:57:41;1.93;;;1.60;;
6513;SDS011;3290;47.716;9.070;2022-09-21T12:00:16;1.53;;;1.30;;
6513;SDS011;3290;47.716;9.070;2022-09-21T12:11:09;2.73;;;1.47;;
6513;SDS011;3290;47.716;9.070;2022-09-21T12:18:50;1.60;;;1.10;;
6513;SDS011;3290;47.716;9.070;2022-09-21T12:21:35;3.67;;;1.70;;
6513;SDS011;3290;47.716;9.070;2022-09-21T12:26:49;1.27;;;1.17;;
6513;SDS011;3290;47.716;9.070;2022-09-21T12:29:27;1.70;;;1.03;;
6513;SDS011;3290;47.716;9.070;2022-09-21T12:32:01;1.67;;;1.30;;
6513;SDS011;3290;47.716;9.070;2022-09-21T12:34:38;4.20;;;1.13;;
6513;SDS011;3290;47.716;9.070;2022-09-21T12:40:38;1.67;;;1.20;;
6513;SDS011;3290;47.716;9.070;2022-09-21T12:45:40;2.40;;;1.23;;
6513;SDS011;3290;47.716;9.070;2022-09-21T12:48:16;2.07;;;1.23;;
6513;SDS011;3290;47.716;9.070;2022-09-21T12:51:03;3.40;;;1.13;;
6513;SDS011;3290;47.716;9.070;2022-09-21T12:53:44;4.20;;;0.93;;
6513;SDS011;3290;47.716;9.070;2022-09-21T12:56:20;2.00;;;1.00;;
6513;SDS011;3290;47.716;9.070;2022-09-21T13:01:35;1.57;;;1.10;;
6513;SDS011;3290;47.716;9.070;2022-09-21T13:09:41;2.13;;;1.20;;
6513;SDS011;3290;47.716;9.070;2022-09-21T13:12:19;11.90;;;1.47;;
6513;SDS011;3290;47.716;9.070;2022-09-21T13:14:58;2.37;;;1.20;;
6513;SDS011;3290;47.716;9.070;2022-09-21T13:17:29;1.47;;;1.00;;
6513;SDS011;3290;47.716;9.070;2022-09-21T13:22:25;1.10;;;1.00;;
6513;SDS011;3290;47.716;9.070;2022-09-21T13:24:59;2.57;;;1.27;;
6513;SDS011;3290;47.716;9.070;2022-09-21T13:32:56;7.13;;;1.70;;
6513;SDS011;3290;47.716;9.070;2022-09-21T13:36:10;3.20;;;1.57;;
6513;SDS011;3290;47.716;9.070;2022-09-21T13:38:24;3.57;;;1.20;;
6513;SDS011;3290;47.716;9.070;2022-09-21T13:51:34;2.10;;;0.93;;
6513;SDS011;3290;47.716;9.070;2022-09-21T13:54:32;1.40;;;1.00;;
6513;SDS011;3290;47.716;9.070;2022-09-21T13:59:44;2.90;;;1.20;;
6513;SDS011;3290;47.716;9.070;2022-09-21T14:02:27;3.53;;;1.30;;
6513;SDS011;3290;47.716;9.070;2022-09-21T14:05:02;1.63;;;1.10;;
6513;SDS011;3290;47.716;9.070;2022-09-21T14:07:32;1.53;;;1.20;;
6513;SDS011;3290;47.716;9.070;2022-09-21T14:10:00;3.30;;;0.90;;
6513;SDS011;3290;47.716;9.070;2022-09-21T14:12:36;2.97;;;0.97;;
6513;SDS011;3290;47.716;9.070;2022-09-21T14:23:32;4.97;;;1.30;;
6513;SDS011;3290;47.716;9.070;2022-09-21T14:25:58;2.50;;;1.53;;
6513;SDS011;3290;47.716;9.070;2022-09-21T14:28:38;2.20;;;1.10;;
6513;SDS011;3290;47.716;9.070;2022-09-21T14:31:21;3.33;;;1.00;;
6513;SDS011;3290;47.716;9.070;2022-09-21T14:33:52;1.20;;;1.00;;
6513;SDS011;3290;47.716;9.070;2022-09-21T14:39:32;2.97;;;1.43;;
6513;SDS011;3290;47.716;9.070;2022-09-21T14:42:02;1.87;;;1.20;;
6513;SDS011;3290;47.716;9.070;2022-09-21T14:44:36;2.23;;;1.33;;
6513;SDS011;3290;47.716;9.070;2022-09-21T14:52:53;3.70;;;1.27;;
6513;SDS011;3290;47.716;9.070;2022-09-21T14:55:24;3.63;;;0.90;;
6513;SDS011;3290;47.716;9.070;2022-09-21T15:09:47;3.60;;;0.97;;
6513;SDS011;3290;47.716;9.070;2022-09-21T15:17:57;1.30;;;0.93;;
6513;SDS011;3290;47.716;9.070;2022-09-21T15:20:26;2.50;;;0.80;;
6513;SDS011;3290;47.716;9.070;2022-09-21T15:22:55;1.47;;;0.80;;
6513;SDS011;3290;47.716;9.070;2022-09-21T15:25:23;2.27;;;0.77;;
6513;SDS011;3290;47.716;9.070;2022-09-21T15:27:56;3.90;;;1.20;;
6513;SDS011;3290;47.716;9.070;2022-09-21T15:30:25;1.20;;;1.10;;
6513;SDS011;3290;47.716;9.070;2022-09-21T15:32:54;1.10;;;0.97;;
6513;SDS011;3290;47.716;9.070;2022-09-21T15:35:25;1.47;;;0.87;;
6513;SDS011;3290;47.716;9.070;2022-09-21T15:37:53;2.17;;;0.87;;
6513;SDS011;3290;47.716;9.070;2022-09-21T15:45:52;2.37;;;1.20;;
6513;SDS011;3290;47.716;9.070;2022-09-21T15:48:20;2.97;;;1.30;;
6513;SDS011;3290;47.716;9.070;2022-09-21T15:50:57;1.57;;;1.30;;
6513;SDS011;3290;47.716;9.070;2022-09-21T15:53:29;1.90;;;0.90;;
6513;SDS011;3290;47.716;9.070;2022-09-21T15:55:58;4.03;;;1.10;;
6513;SDS011;3290;47.716;9.070;2022-09-21T15:58:33;1.87;;;1.00;;
6513;SDS011;3290;47.716;9.070;2022-09-21T16:01:02;1.87;;;1.00;;
6513;SDS011;3290;47.716;9.070;2022-09-21T16:03:33;1.10;;;0.87;;
6513;SDS011;3290;47.716;9.070;2022-09-21T16:05:59;2.33;;;0.90;;
6513;SDS011;3290;47.716;9.070;2022-09-21T16:08:46;2.03;;;0.90;;
6513;SDS011;3290;47.716;9.070;2022-09-21T16:11:14;1.93;;;1.00;;
6513;SDS011;3290;47.716;9.070;2022-09-21T16:13:40;0.93;;;0.90;;
6513;SDS011;3290;47.716;9.070;2022-09-21T16:16:25;1.30;;;1.00;;
6513;SDS011;3290;47.716;9.070;2022-09-21T16:18:52;1.73;;;0.90;;
6513;SDS011;3290;47.716;9.070;2022-09-21T16:21:32;1.20;;;1.00;;
6513;SDS011;3290;47.716;9.070;2022-09-21T16:24:17;1.47;;;0.80;;
6513;SDS011;3290;47.716;9.070;2022-09-21T16:26:56;2.13;;;1.00;;
6513;SDS011;3290;47.716;9.070;2022-09-21T16:29:25;1.60;;;0.93;;
6513;SDS011;3290;47.716;9.070;2022-09-21T16:32:18;9.10;;;1.17;;
6513;SDS011;3290;47.716;9.070;2022-09-21T16:34:51;2.77;;;1.20;;
6513;SDS011;3290;47.716;9.070;2022-09-21T16:39:47;1.43;;;1.20;;
6513;SDS011;3290;47.716;9.070;2022-09-21T16:42:12;1.40;;;0.90;;
6513;SDS011;3290;47.716;9.070;2022-09-21T16:44:37;1.60;;;1.20;;
6513;SDS011;3290;47.716;9.070;2022-09-21T16:49:54;5.70;;;1.97;;
6513;SDS011;3290;47.716;9.070;2022-09-21T16:52:26;2.70;;;1.60;;
6513;SDS011;3290;47.716;9.070;2022-09-21T16:54:53;6.27;;;2.67;;
6513;SDS011;3290;47.716;9.070;2022-09-21T16:57:20;4.33;;;1.40;;
6513;SDS011;3290;47.716;9.070;2022-09-21T16:59:47;1.90;;;1.00;;
6513;SDS011;3290;47.716;9.070;2022-09-21T17:02:13;1.60;;;1.43;;
6513;SDS011;3290;47.716;9.070;2022-09-21T17:04:39;1.37;;;1.10;;
6513;SDS011;3290;47.716;9.070;2022-09-21T17:07:04;2.07;;;1.10;;
6513;SDS011;3290;47.716;9.070;2022-09-21T17:09:34;2.80;;;1.20;;
6513;SDS011;3290;47.716;9.070;2022-09-21T17:12:02;2.57;;;1.30;;
6513;SDS011;3290;47.716;9.070;2022-09-21T17:14:31;1.50;;;1.17;;
6513;SDS011;3290;47.716;9.070;2022-09-21T17:17:04;3.07;;;1.57;;
6513;SDS011;3290;47.716;9.070;2022-09-21T17:19:35;4.10;;;1.27;;
6513;SDS011;3290;47.716;9.070;2022-09-21T17:22:01;5.10;;;2.00;;
6513;SDS011;3290;47.716;9.070;2022-09-21T17:24:28;1.40;;;1.10;;
6513;SDS011;3290;47.716;9.070;2022-09-21T17:26:53;1.33;;;0.90;;
6513;SDS011;3290;47.716;9.070;2022-09-21T17:31:54;1.30;;;1.00;;
6513;SDS011;3290;47.716;9.070;2022-09-21T17:34:21;1.57;;;1.30;;
6513;SDS011;3290;47.716;9.070;2022-09-21T17:36:51;4.20;;;1.17;;
6513;SDS011;3290;47.716;9.070;2022-09-21T17:39:19;3.00;;;1.10;;
6513;SDS011;3290;47.716;9.070;2022-09-21T17:41:50;1.83;;;1.10;;
6513;SDS011;3290;47.716;9.070;2022-09-21T17:47:11;3.23;;;1.63;;
6513;SDS011;3290;47.716;9.070;2022-09-21T17:49:47;2.40;;;1.57;;
6513;SDS011;3290;47.716;9.070;2022-09-21T17:52:17;6.37;;;2.47;;
6513;SDS011;3290;47.716;9.070;2022-09-21T17:55:02;5.70;;;1.70;;
6513;SDS011;3290;47.716;9.070;2022-09-21T18:00:11;4.70;;;1.30;;
6513;SDS011;3290;47.716;9.070;2022-09-21T18:02:42;1.70;;;1.43;;
6513;SDS011;3290;47.716;9.070;2022-09-21T18:05:13;1.97;;;1.20;;
6513;SDS011;3290;47.716;9.070;2022-09-21T18:07:45;2.13;;;1.53;;
6513;SDS011;3290;47.716;9.070;2022-09-21T18:10:11;1.30;;;1.20;;
6513;SDS011;3290;47.716;9.070;2022-09-21T18:18:36;4.83;;;2.50;;
6513;SDS011;3290;47.716;9.070;2022-09-21T18:21:04;7.90;;;3.57;;
6513;SDS011;3290;47.716;9.070;2022-09-21T18:23:37;4.80;;;1.90;;
6513;SDS011;3290;47.716;9.070;2022-09-21T18:26:14;6.13;;;2.60;;
6513;SDS011;3290;47.716;9.070;2022-09-21T18:28:44;3.67;;;1.87;;
6513;SDS011;3290;47.716;9.070;2022-09-21T18:33:58;4.13;;;2.00;;
6513;SDS011;3290;47.716;9.070;2022-09-21T18:36:36;5.13;;;2.17;;
6513;SDS011;3290;47.716;9.070;2022-09-21T18:44:48;2.60;;;1.50;;
6513;SDS011;3290;47.716;9.070;2022-09-21T18:47:34;3.87;;;1.40;;
6513;SDS011;3290;47.716;9.070;2022-09-21T18:55:45;3.50;;;1.93;;
6513;SDS011;3290;47.716;9.070;2022-09-21T18:58:11;1.20;;;1.10;;
6513;SDS011;3290;47.716;9.070;2022-09-21T19:00:38;1.87;;;1.33;;
6513;SDS011;3290;47.716;9.070;2022-09-21T19:03:05;1.23;;;1.13;;
6513;SDS011;3290;47.716;9.070;2022-09-21T19:05:34;2.00;;;1.53;;
6513;SDS011;3290;47.716;9.070;2022-09-21T19:10:58;1.50;;;1.30;;
6513;SDS011;3290;47.716;9.070;2022-09-21T19:13:31;4.77;;;1.23;;
6513;SDS011;3290;47.716;9.070;2022-09-21T19:16:11;3.50;;;1.70;;
6513;SDS011;3290;47.716;9.070;2022-09-21T19:21:44;7.63;;;1.53;;
6513;SDS011;3290;47.716;9.070;2022-09-21T19:24:35;2.17;;;1.20;;
6513;SDS011;3290;47.716;9.070;2022-09-21T19:27:16;3.00;;;1.23;;
6513;SDS011;3290;47.716;9.070;2022-09-21T19:35:25;1.43;;;1.10;;
6513;SDS011;3290;47.716;9.070;2022-09-21T19:37:51;3.43;;;1.50;;
6513;SDS011;3290;47.716;9.070;2022-09-21T19:40:19;1.43;;;1.10;;
6513;SDS011;3290;47.716;9.070;2022-09-21T19:47:51;1.90;;;1.17;;
6513;SDS011;3290;47.716;9.070;2022-09-21T19:50:20;2.03;;;0.97;;
6513;SDS011;3290;47.716;9.070;2022-09-21T19:52:51;1.63;;;1.30;;
6513;SDS011;3290;47.716;9.070;2022-09-21T19:55:37;4.20;;;1.10;;
6513;SDS011;3290;47.716;9.070;2022-09-21T19:58:23;1.67;;;1.00;;
6513;SDS011;3290;47.716;9.070;2022-09-21T20:01:08;3.00;;;1.47;;
6513;SDS011;3290;47.716;9.070;2022-09-21T20:03:39;2.53;;;1.03;;
6513;SDS011;3290;47.716;9.070;2022-09-21T20:06:26;2.50;;;1.10;;
6513;SDS011;3290;47.716;9.070;2022-09-21T20:16:47;2.07;;;1.50;;